sensor_id;sensor_type;location;lat;lon;timestamp;pressure;altitude;pressure_sealevel;temperature;humidity
53932;BME280;39844;52.496;13.482;2022-11-10T00:01:57;101261.69;;;12.42;75.90
53932;BME280;39844;52.496;13.482;2022-11-10T00:04:22;101266.06;;;12.45;75.40
53932;BME280;39844;52.496;13.482;2022-11-10T00:06:48;101266.91;;;12.48;74.67
53932;BME280;39844;52.496;13.482;2022-11-10T00:09:14;101272.19;;;12.48;74.56
53932;BME280;39844;52.496;13.482;2022-11-10T00:11:40;101267.81;;;12.50;74.14
53932;BME280;39844;52.496;13.482;2022-11-10T00:14:06;101269.56;;;12.48;74.34
53932;BME280;39844;52.496;13.482;2022-11-10T00:16:50;101274.84;;;12.42;74.60
53932;BME280;39844;52.496;13.482;2022-11-10T00:19:32;101281.88;;;12.36;74.93
53932;BME280;39844;52.496;13.482;2022-11-10T00:21:58;101281.91;;;12.33;75.73
53932;BME280;39844;52.496;13.482;2022-11-10T00:24:24;101281.03;;;12.29;76.08
53932;BME280;39844;52.496;13.482;2022-11-10T00:26:50;101285.41;;;12.26;76.52
53932;BME280;39844;52.496;13.482;2022-11-10T00:29:16;101285.41;;;12.21;76.90
53932;BME280;39844;52.496;13.482;2022-11-10T00:31:41;101282.78;;;12.18;77.17
53932;BME280;39844;52.496;13.482;2022-11-10T00:34:13;101288.06;;;12.18;77.72
53932;BME280;39844;52.496;13.482;2022-11-10T00:36:39;101284.56;;;12.19;77.86
53932;BME280;39844;52.496;13.482;2022-11-10T00:39:05;101288.06;;;12.21;77.55
53932;BME280;39844;52.496;13.482;2022-11-10T00:41:31;101291.56;;;12.25;77.50
53932;BME280;39844;52.496;13.482;2022-11-10T00:43:56;101291.56;;;12.29;77.05
53932;BME280;39844;52.496;13.482;2022-11-10T00:46:21;101302.97;;;12.33;76.62
53932;BME280;39844;52.496;13.482;2022-11-10T00:48:47;101297.66;;;12.36;76.17
53932;BME280;39844;52.496;13.482;2022-11-10T00:51:26;101299.44;;;12.40;76.35
53932;BME280;39844;52.496;13.482;2022-11-10T00:53:52;101289.78;;;12.45;75.56
53932;BME280;39844;52.496;13.482;2022-11-10T00:56:18;101296.78;;;12.47;75.61
53932;BME280;39844;52.496;13.482;2022-11-10T00:58:44;101301.16;;;12.48;75.14
53932;BME280;39844;52.496;13.482;2022-11-10T01:01:09;101306.44;;;12.50;75.04
53932;BME280;39844;52.496;13.482;2022-11-10T01:03:35;101310.81;;;12.51;74.65
53932;BME280;39844;52.496;13.482;2022-11-10T01:06:13;101304.66;;;12.52;74.49
53932;BME280;39844;52.496;13.482;2022-11-10T01:08:39;101316.94;;;12.54;74.21
53932;BME280;39844;52.496;13.482;2022-11-10T01:11:07;101316.94;;;12.56;73.78
53932;BME280;39844;52.496;13.482;2022-11-10T01:13:34;101313.41;;;12.58;73.98
53932;BME280;39844;52.496;13.482;2022-11-10T01:16:05;101316.94;;;12.60;73.73
53932;BME280;39844;52.496;13.482;2022-11-10T01:18:31;101313.41;;;12.61;73.45
53932;BME280;39844;52.496;13.482;2022-11-10T01:20:56;101316.94;;;12.60;73.53
53932;BME280;39844;52.496;13.482;2022-11-10T01:23:22;101320.44;;;12.59;73.60
53932;BME280;39844;52.496;13.482;2022-11-10T01:25:47;101311.66;;;12.56;73.96
53932;BME280;39844;52.496;13.482;2022-11-10T01:28:12;101321.34;;;12.52;74.02
53932;BME280;39844;52.496;13.482;2022-11-10T01:30:38;101324.00;;;12.48;74.44
53932;BME280;39844;52.496;13.482;2022-11-10T01:33:03;101322.22;;;12.44;74.60
53932;BME280;39844;52.496;13.482;2022-11-10T01:35:28;101337.19;;;12.40;74.91
53932;BME280;39844;52.496;13.482;2022-11-10T01:37:54;101332.78;;;12.38;75.27
53932;BME280;39844;52.496;13.482;2022-11-10T01:40:19;101330.16;;;12.35;75.46
53932;BME280;39844;52.496;13.482;2022-11-10T01:42:53;101342.47;;;12.33;75.77
53932;BME280;39844;52.496;13.482;2022-11-10T01:47:58;101353.84;;;12.29;75.69
53932;BME280;39844;52.496;13.482;2022-11-10T01:50:30;101346.84;;;12.26;76.17
53932;BME280;39844;52.496;13.482;2022-11-10T01:52:59;101356.50;;;12.24;76.27
53932;BME280;39844;52.496;13.482;2022-11-10T01:55:26;101361.75;;;12.21;76.20
53932;BME280;39844;52.496;13.482;2022-11-10T01:57:53;101358.25;;;12.19;76.20
53932;BME280;39844;52.496;13.482;2022-11-10T02:00:20;101367.03;;;12.20;76.28
53932;BME280;39844;52.496;13.482;2022-11-10T02:03:02;101371.44;;;12.18;76.30
53932;BME280;39844;52.496;13.482;2022-11-10T02:05:29;101371.44;;;12.18;76.63
53932;BME280;39844;52.496;13.482;2022-11-10T02:07:56;101376.69;;;12.18;76.15
53932;BME280;39844;52.496;13.482;2022-11-10T02:10:21;101367.88;;;12.16;76.69
53932;BME280;39844;52.496;13.482;2022-11-10T02:12:48;101374.94;;;12.15;76.67
53932;BME280;39844;52.496;13.482;2022-11-10T02:15:15;101375.78;;;12.14;76.78
53932;BME280;39844;52.496;13.482;2022-11-10T02:17:42;101378.41;;;12.11;76.92
53932;BME280;39844;52.496;13.482;2022-11-10T02:20:11;101377.53;;;12.11;76.85
53932;BME280;39844;52.496;13.482;2022-11-10T02:22:37;101381.94;;;12.09;76.42
53932;BME280;39844;52.496;13.482;2022-11-10T02:25:03;101380.19;;;12.06;76.48
53932;BME280;39844;52.496;13.482;2022-11-10T02:27:29;101382.81;;;12.03;77.13
53932;BME280;39844;52.496;13.482;2022-11-10T02:29:55;101391.59;;;12.02;77.01
53932;BME280;39844;52.496;13.482;2022-11-10T02:32:21;101395.09;;;12.01;77.07
53932;BME280;39844;52.496;13.482;2022-11-10T02:34:47;101402.97;;;12.02;76.97
53932;BME280;39844;52.496;13.482;2022-11-10T02:37:12;101391.56;;;12.03;76.98
53932;BME280;39844;52.496;13.482;2022-11-10T02:39:38;101402.97;;;12.05;76.88
53932;BME280;39844;52.496;13.482;2022-11-10T02:42:04;101402.13;;;12.05;77.03
53932;BME280;39844;52.496;13.482;2022-11-10T02:44:35;101404.75;;;12.07;77.35
53932;BME280;39844;52.496;13.482;2022-11-10T02:47:00;101408.25;;;12.05;76.73
53932;BME280;39844;52.496;13.482;2022-11-10T02:49:26;101409.13;;;12.06;76.64
53932;BME280;39844;52.496;13.482;2022-11-10T02:51:51;101407.38;;;12.10;76.15
53932;BME280;39844;52.496;13.482;2022-11-10T02:54:16;101414.41;;;12.12;76.46
53932;BME280;39844;52.496;13.482;2022-11-10T02:56:41;101412.66;;;12.14;75.87
53932;BME280;39844;52.496;13.482;2022-11-10T02:59:07;101415.25;;;12.16;75.88
53932;BME280;39844;52.496;13.482;2022-11-10T03:01:32;101420.53;;;12.17;75.85
53932;BME280;39844;52.496;13.482;2022-11-10T03:03:57;101422.31;;;12.20;75.71
53932;BME280;39844;52.496;13.482;2022-11-10T03:06:23;101422.28;;;12.21;75.30
53932;BME280;39844;52.496;13.482;2022-11-10T03:08:48;101424.94;;;12.24;74.76
53932;BME280;39844;52.496;13.482;2022-11-10T03:11:13;101435.47;;;12.27;74.78
53932;BME280;39844;52.496;13.482;2022-11-10T03:13:39;101437.19;;;12.28;74.56
53932;BME280;39844;52.496;13.482;2022-11-10T03:16:04;101438.09;;;12.30;74.45
53932;BME280;39844;52.496;13.482;2022-11-10T03:18:29;101442.47;;;12.31;74.23
53932;BME280;39844;52.496;13.482;2022-11-10T03:20:55;101453.03;;;12.37;73.71
53932;BME280;39844;52.496;13.482;2022-11-10T03:23:20;101453.88;;;12.41;73.51
53932;BME280;39844;52.496;13.482;2022-11-10T03:25:45;101471.47;;;12.45;73.32
53932;BME280;39844;52.496;13.482;2022-11-10T03:28:11;101468.81;;;12.45;72.94
53932;BME280;39844;52.496;13.482;2022-11-10T03:30:37;101465.31;;;12.47;72.41
53932;BME280;39844;52.496;13.482;2022-11-10T03:33:02;101483.72;;;12.49;72.37
53932;BME280;39844;52.496;13.482;2022-11-10T03:35:28;101480.22;;;12.50;72.43
53932;BME280;39844;52.496;13.482;2022-11-10T03:37:53;101476.69;;;12.51;72.49
53932;BME280;39844;52.496;13.482;2022-11-10T03:40:19;101490.78;;;12.50;72.33
53932;BME280;39844;52.496;13.482;2022-11-10T03:42:45;101483.75;;;12.50;72.00
53932;BME280;39844;52.496;13.482;2022-11-10T03:45:11;101487.25;;;12.49;72.21
53932;BME280;39844;52.496;13.482;2022-11-10T03:47:38;101487.25;;;12.49;72.43
53932;BME280;39844;52.496;13.482;2022-11-10T03:50:04;101489.91;;;12.48;72.42
53932;BME280;39844;52.496;13.482;2022-11-10T03:52:30;101482.84;;;12.47;72.10
53932;BME280;39844;52.496;13.482;2022-11-10T03:54:55;101496.91;;;12.44;72.30
53932;BME280;39844;52.496;13.482;2022-11-10T03:57:21;101495.13;;;12.43;72.07
53932;BME280;39844;52.496;13.482;2022-11-10T03:59:46;101496.91;;;12.41;72.89
53932;BME280;39844;52.496;13.482;2022-11-10T04:02:11;101501.31;;;12.38;72.58
53932;BME280;39844;52.496;13.482;2022-11-10T04:04:37;101499.53;;;12.35;73.10
53932;BME280;39844;52.496;13.482;2022-11-10T04:07:21;101495.13;;;12.31;73.19
53932;BME280;39844;52.496;13.482;2022-11-10T04:10:06;101504.78;;;12.29;72.95
53932;BME280;39844;52.496;13.482;2022-11-10T04:12:31;101510.91;;;12.27;73.16
53932;BME280;39844;52.496;13.482;2022-11-10T04:15:15;101507.41;;;12.23;73.29
53932;BME280;39844;52.496;13.482;2022-11-10T04:17:59;101524.06;;;12.19;73.32
53932;BME280;39844;52.496;13.482;2022-11-10T04:20:44;101524.09;;;12.18;73.90
53932;BME280;39844;52.496;13.482;2022-11-10T04:23:09;101537.22;;;12.16;73.77
53932;BME280;39844;52.496;13.482;2022-11-10T04:26:07;101531.94;;;12.16;73.44
53932;BME280;39844;52.496;13.482;2022-11-10T04:28:59;101537.22;;;12.16;73.52
53932;BME280;39844;52.496;13.482;2022-11-10T04:31:27;101533.72;;;12.14;73.43
53932;BME280;39844;52.496;13.482;2022-11-10T04:33:53;101540.75;;;12.15;73.68
53932;BME280;39844;52.496;13.482;2022-11-10T04:36:21;101550.38;;;12.12;74.06
53932;BME280;39844;52.496;13.482;2022-11-10T04:38:47;101552.09;;;12.08;73.98
53932;BME280;39844;52.496;13.482;2022-11-10T04:41:13;101554.75;;;12.05;74.04
53932;BME280;39844;52.496;13.482;2022-11-10T04:43:39;101556.47;;;12.01;74.43
53932;BME280;39844;52.496;13.482;2022-11-10T04:46:05;101559.94;;;11.97;74.52
53932;BME280;39844;52.496;13.482;2022-11-10T04:48:32;101559.97;;;11.94;74.85
53932;BME280;39844;52.496;13.482;2022-11-10T04:51:03;101562.59;;;11.91;74.64
53932;BME280;39844;52.496;13.482;2022-11-10T04:53:28;101562.56;;;11.90;75.14
53932;BME280;39844;52.496;13.482;2022-11-10T04:55:54;101566.06;;;11.90;75.07
53932;BME280;39844;52.496;13.482;2022-11-10T04:58:19;101552.91;;;11.87;74.89
53932;BME280;39844;52.496;13.482;2022-11-10T05:00:45;101568.69;;;11.84;75.44
53932;BME280;39844;52.496;13.482;2022-11-10T05:03:12;101574.81;;;11.83;75.55
53932;BME280;39844;52.496;13.482;2022-11-10T05:05:38;101576.56;;;11.81;75.52
53932;BME280;39844;52.496;13.482;2022-11-10T05:08:04;101574.78;;;11.77;75.49
53932;BME280;39844;52.496;13.482;2022-11-10T05:10:30;101584.41;;;11.75;75.95
53932;BME280;39844;52.496;13.482;2022-11-10T05:12:56;101579.13;;;11.72;76.05
53932;BME280;39844;52.496;13.482;2022-11-10T05:15:22;101587.88;;;11.70;76.24
53932;BME280;39844;52.496;13.482;2022-11-10T05:17:49;101584.34;;;11.66;76.01
53932;BME280;39844;52.496;13.482;2022-11-10T05:20:15;101596.59;;;11.63;76.57
53932;BME280;39844;52.496;13.482;2022-11-10T05:22:46;101607.09;;;11.60;76.62
53932;BME280;39844;52.496;13.482;2022-11-10T05:25:32;101601.84;;;11.57;77.26
53932;BME280;39844;52.496;13.482;2022-11-10T05:27:57;101601.81;;;11.54;77.47
53932;BME280;39844;52.496;13.482;2022-11-10T05:30:23;101607.94;;;11.51;77.18
53932;BME280;39844;52.496;13.482;2022-11-10T05:32:48;101621.03;;;11.47;77.92
53932;BME280;39844;52.496;13.482;2022-11-10T05:35:13;101625.38;;;11.41;77.95
53932;BME280;39844;52.496;13.482;2022-11-10T05:37:39;101628.00;;;11.38;78.44
53932;BME280;39844;52.496;13.482;2022-11-10T05:40:05;101629.72;;;11.35;78.94
53932;BME280;39844;52.496;13.482;2022-11-10T05:42:31;101640.19;;;11.30;78.94
53932;BME280;39844;52.496;13.482;2022-11-10T05:44:56;101648.94;;;11.29;79.30
53932;BME280;39844;52.496;13.482;2022-11-10T05:47:22;101652.47;;;11.28;79.33
53932;BME280;39844;52.496;13.482;2022-11-10T05:49:47;101654.16;;;11.26;79.21
53932;BME280;39844;52.496;13.482;2022-11-10T05:52:12;101662.94;;;11.27;79.13
53932;BME280;39844;52.496;13.482;2022-11-10T05:54:38;101671.69;;;11.24;79.45
53932;BME280;39844;52.496;13.482;2022-11-10T05:57:03;101668.13;;;11.19;79.78
53932;BME280;39844;52.496;13.482;2022-11-10T05:59:28;101669.88;;;11.17;79.80
53932;BME280;39844;52.496;13.482;2022-11-10T06:01:54;101684.78;;;11.18;80.28
53932;BME280;39844;52.496;13.482;2022-11-10T06:04:19;101689.16;;;11.19;79.83
53932;BME280;39844;52.496;13.482;2022-11-10T06:06:44;101699.69;;;11.21;79.63
53932;BME280;39844;52.496;13.482;2022-11-10T06:09:10;101694.44;;;11.24;79.75
53932;BME280;39844;52.496;13.482;2022-11-10T06:11:35;101706.72;;;11.23;79.57
53932;BME280;39844;52.496;13.482;2022-11-10T06:14:00;101700.56;;;11.21;79.44
53932;BME280;39844;52.496;13.482;2022-11-10T06:16:26;101707.56;;;11.19;79.96
53932;BME280;39844;52.496;13.482;2022-11-10T06:18:51;101713.66;;;11.15;80.26
53932;BME280;39844;52.496;13.482;2022-11-10T06:21:16;101718.00;;;11.12;80.43
53932;BME280;39844;52.496;13.482;2022-11-10T06:23:42;101717.97;;;11.09;80.67
53932;BME280;39844;52.496;13.482;2022-11-10T06:26:07;101724.94;;;11.07;80.68
53932;BME280;39844;52.496;13.482;2022-11-10T06:28:32;101733.72;;;11.06;80.70
53932;BME280;39844;52.496;13.482;2022-11-10T06:30:58;101739.81;;;11.03;80.95
53932;BME280;39844;52.496;13.482;2022-11-10T06:33:23;101746.81;;;11.03;81.10
53932;BME280;39844;52.496;13.482;2022-11-10T06:35:48;101758.19;;;11.02;81.01
53932;BME280;39844;52.496;13.482;2022-11-10T06:38:14;101763.41;;;10.99;81.29
53932;BME280;39844;52.496;13.482;2022-11-10T06:40:39;101759.88;;;10.95;81.86
53932;BME280;39844;52.496;13.482;2022-11-10T06:43:04;101771.19;;;10.91;81.87
53932;BME280;39844;52.496;13.482;2022-11-10T06:45:30;101772.91;;;10.89;82.01
53932;BME280;39844;52.496;13.482;2022-11-10T06:48:03;101778.13;;;10.86;82.08
53932;BME280;39844;52.496;13.482;2022-11-10T06:50:30;101791.22;;;10.83;82.56
53932;BME280;39844;52.496;13.482;2022-11-10T06:52:56;101798.16;;;10.78;82.65
53932;BME280;39844;52.496;13.482;2022-11-10T06:55:22;101806.03;;;10.75;82.93
53932;BME280;39844;52.496;13.482;2022-11-10T06:57:47;101809.50;;;10.72;83.18
53932;BME280;39844;52.496;13.482;2022-11-10T07:00:13;101817.34;;;10.71;83.17
53932;BME280;39844;52.496;13.482;2022-11-10T07:02:39;101825.19;;;10.68;83.58
53932;BME280;39844;52.496;13.482;2022-11-10T07:05:05;101820.75;;;10.64;83.54
53932;BME280;39844;52.496;13.482;2022-11-10T07:07:30;101830.38;;;10.62;83.75
53932;BME280;39844;52.496;13.482;2022-11-10T07:09:56;101846.13;;;10.62;84.27
53932;BME280;39844;52.496;13.482;2022-11-10T07:12:21;101846.16;;;10.65;84.43
53932;BME280;39844;52.496;13.482;2022-11-10T07:14:46;101847.97;;;10.69;84.34
53932;BME280;39844;52.496;13.482;2022-11-10T07:17:12;101859.41;;;10.75;85.03
53932;BME280;39844;52.496;13.482;2022-11-10T07:19:37;101856.88;;;10.83;84.32
53932;BME280;39844;52.496;13.482;2022-11-10T07:22:02;101867.50;;;10.89;83.60
53932;BME280;39844;52.496;13.482;2022-11-10T07:24:28;101865.81;;;10.94;83.17
53932;BME280;39844;52.496;13.482;2022-11-10T07:26:56;101876.41;;;11.00;83.48
53932;BME280;39844;52.496;13.482;2022-11-10T07:29:22;101865.94;;;11.03;83.16
53932;BME280;39844;52.496;13.482;2022-11-10T07:31:47;101880.00;;;11.08;82.80
53932;BME280;39844;52.496;13.482;2022-11-10T07:34:13;101884.44;;;11.12;82.60
53932;BME280;39844;52.496;13.482;2022-11-10T07:36:38;101890.56;;;11.14;82.33
53932;BME280;39844;52.496;13.482;2022-11-10T07:39:04;101894.09;;;11.16;82.22
53932;BME280;39844;52.496;13.482;2022-11-10T07:41:29;101888.00;;;11.17;82.25
53932;BME280;39844;52.496;13.482;2022-11-10T07:43:54;101886.25;;;11.18;82.34
53932;BME280;39844;52.496;13.482;2022-11-10T07:46:20;101889.78;;;11.18;82.66
53932;BME280;39844;52.496;13.482;2022-11-10T07:48:45;101895.88;;;11.17;82.22
53932;BME280;39844;52.496;13.482;2022-11-10T07:51:10;101903.75;;;11.17;82.27
53932;BME280;39844;52.496;13.482;2022-11-10T07:53:36;101907.25;;;11.16;82.46
53932;BME280;39844;52.496;13.482;2022-11-10T07:56:01;101916.00;;;11.17;82.58
53932;BME280;39844;52.496;13.482;2022-11-10T07:58:26;101909.91;;;11.19;82.07
53932;BME280;39844;52.496;13.482;2022-11-10T08:00:53;101915.22;;;11.22;82.00
53932;BME280;39844;52.496;13.482;2022-11-10T08:03:20;101924.03;;;11.27;81.87
53932;BME280;39844;52.496;13.482;2022-11-10T08:05:46;101924.97;;;11.31;81.72
53932;BME280;39844;52.496;13.482;2022-11-10T08:08:12;101922.34;;;11.34;81.39
53932;BME280;39844;52.496;13.482;2022-11-10T08:10:39;101925.91;;;11.37;81.52
53932;BME280;39844;52.496;13.482;2022-11-10T08:13:07;101934.69;;;11.39;81.37
53932;BME280;39844;52.496;13.482;2022-11-10T08:15:33;101937.38;;;11.44;81.58
53932;BME280;39844;52.496;13.482;2022-11-10T08:18:00;101924.31;;;11.49;80.74
53932;BME280;39844;52.496;13.482;2022-11-10T08:20:26;101940.97;;;11.52;80.54
53932;BME280;39844;52.496;13.482;2022-11-10T08:22:59;101931.41;;;11.56;80.96
53932;BME280;39844;52.496;13.482;2022-11-10T08:25:28;101944.63;;;11.62;80.39
53932;BME280;39844;52.496;13.482;2022-11-10T08:28:05;101942.94;;;11.67;80.21
53932;BME280;39844;52.496;13.482;2022-11-10T08:30:31;101942.16;;;11.74;80.01
53932;BME280;39844;52.496;13.482;2022-11-10T08:32:59;101954.50;;;11.81;79.71
53932;BME280;39844;52.496;13.482;2022-11-10T08:35:27;101945.75;;;11.85;79.20
53932;BME280;39844;52.496;13.482;2022-11-10T08:37:53;101950.22;;;11.90;78.92
53932;BME280;39844;52.496;13.482;2022-11-10T08:40:20;101951.13;;;11.94;78.70
53932;BME280;39844;52.496;13.482;2022-11-10T08:42:46;101959.97;;;11.99;78.46
53932;BME280;39844;52.496;13.482;2022-11-10T08:45:13;101963.56;;;12.07;78.77
53932;BME280;39844;52.496;13.482;2022-11-10T08:47:38;101970.63;;;12.13;78.45
53932;BME280;39844;52.496;13.482;2022-11-10T08:50:05;101978.56;;;12.17;77.73
53932;BME280;39844;52.496;13.482;2022-11-10T08:52:31;101981.25;;;12.20;77.27
53932;BME280;39844;52.496;13.482;2022-11-10T08:54:56;101977.78;;;12.27;77.52
53932;BME280;39844;52.496;13.482;2022-11-10T08:57:22;101982.22;;;12.33;76.87
53932;BME280;39844;52.496;13.482;2022-11-10T08:59:47;101992.81;;;12.37;76.35
53932;BME280;39844;52.496;13.482;2022-11-10T09:02:12;102000.78;;;12.46;76.39
53932;BME280;39844;52.496;13.482;2022-11-10T09:04:38;101997.31;;;12.52;76.21
53932;BME280;39844;52.496;13.482;2022-11-10T09:07:03;102008.75;;;12.55;75.80
53932;BME280;39844;52.496;13.482;2022-11-10T09:09:29;102009.66;;;12.57;75.61
53932;BME280;39844;52.496;13.482;2022-11-10T09:11:55;102012.28;;;12.57;75.38
53932;BME280;39844;52.496;13.482;2022-11-10T09:14:20;102012.31;;;12.60;75.43
53932;BME280;39844;52.496;13.482;2022-11-10T09:16:45;102025.53;;;12.63;75.14
53932;BME280;39844;52.496;13.482;2022-11-10T09:19:11;102022.00;;;12.64;74.55
53932;BME280;39844;52.496;13.482;2022-11-10T09:21:36;102032.56;;;12.67;74.73
53932;BME280;39844;52.496;13.482;2022-11-10T09:24:02;102033.50;;;12.71;74.06
53932;BME280;39844;52.496;13.482;2022-11-10T09:26:27;102036.13;;;12.74;74.69
53932;BME280;39844;52.496;13.482;2022-11-10T09:28:53;102031.78;;;12.76;73.99
53932;BME280;39844;52.496;13.482;2022-11-10T09:31:18;102032.63;;;12.77;74.42
53932;BME280;39844;52.496;13.482;2022-11-10T09:33:43;102037.03;;;12.76;74.27
53932;BME280;39844;52.496;13.482;2022-11-10T09:36:09;102042.31;;;12.78;74.06
53932;BME280;39844;52.496;13.482;2022-11-10T09:38:34;102037.03;;;12.79;73.93
53932;BME280;39844;52.496;13.482;2022-11-10T09:41:08;102037.06;;;12.82;74.25
53932;BME280;39844;52.496;13.482;2022-11-10T09:46:36;102046.78;;;12.88;74.03
53932;BME280;39844;52.496;13.482;2022-11-10T09:51:44;102051.19;;;12.90;73.09
53932;BME280;39844;52.496;13.482;2022-11-10T09:54:45;102050.31;;;12.90;73.69
53932;BME280;39844;52.496;13.482;2022-11-10T09:57:16;102057.38;;;12.91;73.62
53932;BME280;39844;52.496;13.482;2022-11-10T09:59:43;102051.19;;;12.90;73.35
53932;BME280;39844;52.496;13.482;2022-11-10T10:07:45;102062.66;;;12.97;73.35
53932;BME280;39844;52.496;13.482;2022-11-10T10:10:51;102048.66;;;13.02;73.07
53932;BME280;39844;52.496;13.482;2022-11-10T10:16:19;102058.44;;;13.14;72.80
53932;BME280;39844;52.496;13.482;2022-11-10T10:21:36;102051.47;;;13.19;72.52
53932;BME280;39844;52.496;13.482;2022-11-10T10:24:10;102052.31;;;13.18;72.36
53932;BME280;39844;52.496;13.482;2022-11-10T10:26:44;102059.31;;;13.13;72.68
53932;BME280;39844;52.496;13.482;2022-11-10T10:29:18;102064.56;;;13.10;72.86
53932;BME280;39844;52.496;13.482;2022-11-10T10:31:52;102066.31;;;13.08;72.46
53932;BME280;39844;52.496;13.482;2022-11-10T10:34:22;102066.34;;;13.11;72.67
53932;BME280;39844;52.496;13.482;2022-11-10T10:36:48;102060.16;;;13.12;72.45
53932;BME280;39844;52.496;13.482;2022-11-10T10:39:35;102070.75;;;13.15;72.43
53932;BME280;39844;52.496;13.482;2022-11-10T10:42:16;102069.94;;;13.22;72.10
53932;BME280;39844;52.496;13.482;2022-11-10T10:47:37;102066.47;;;13.35;71.43
53932;BME280;39844;52.496;13.482;2022-11-10T10:50:29;102070.09;;;13.46;71.01
53932;BME280;39844;52.496;13.482;2022-11-10T10:53:44;102066.63;;;13.56;70.50
53932;BME280;39844;52.496;13.482;2022-11-10T10:56:19;102078.09;;;13.66;70.28
53932;BME280;39844;52.496;13.482;2022-11-10T10:58:55;102079.03;;;13.72;69.97
53932;BME280;39844;52.496;13.482;2022-11-10T11:01:36;102079.03;;;13.78;69.96
53932;BME280;39844;52.496;13.482;2022-11-10T11:04:25;102093.13;;;13.77;69.38
53932;BME280;39844;52.496;13.482;2022-11-10T11:06:59;102089.63;;;13.84;70.07
53932;BME280;39844;52.496;13.482;2022-11-10T11:09:40;102088.78;;;13.85;68.97
53932;BME280;39844;52.496;13.482;2022-11-10T11:12:11;102079.94;;;13.83;68.72
53932;BME280;39844;52.496;13.482;2022-11-10T11:14:37;102077.31;;;13.80;69.02
53932;BME280;39844;52.496;13.482;2022-11-10T11:17:16;102079.94;;;13.82;68.78
53932;BME280;39844;52.496;13.482;2022-11-10T11:19:41;102079.97;;;13.88;69.23
53932;BME280;39844;52.496;13.482;2022-11-10T11:25:17;102075.66;;;14.10;68.90
53932;BME280;39844;52.496;13.482;2022-11-10T11:33:29;102087.13;;;14.18;68.15
53932;BME280;39844;52.496;13.482;2022-11-10T11:36:02;102102.97;;;14.19;68.13
53932;BME280;39844;52.496;13.482;2022-11-10T11:38:33;102098.59;;;14.23;68.45
53932;BME280;39844;52.496;13.482;2022-11-10T11:55:04;102095.91;;;14.14;67.71
53932;BME280;39844;52.496;13.482;2022-11-10T11:57:52;102099.47;;;14.23;68.17
53932;BME280;39844;52.496;13.482;2022-11-10T12:00:19;102083.72;;;14.46;66.06
53932;BME280;39844;52.496;13.482;2022-11-10T12:11:23;102083.72;;;15.53;63.09
53932;BME280;39844;52.496;13.482;2022-11-10T12:14:27;102086.34;;;15.55;62.78
53932;BME280;39844;52.496;13.482;2022-11-10T12:19:46;102081.09;;;15.15;63.05
53932;BME280;39844;52.496;13.482;2022-11-10T12:22:44;102093.44;;;14.85;63.79
53932;BME280;39844;52.496;13.482;2022-11-10T12:27:55;102092.53;;;14.65;64.77
53932;BME280;39844;52.496;13.482;2022-11-10T12:30:23;102103.09;;;14.60;65.58
53932;BME280;39844;52.496;13.482;2022-11-10T12:35:22;102098.72;;;14.59;64.99
53932;BME280;39844;52.496;13.482;2022-11-10T12:40:29;102108.41;;;14.63;65.34
53932;BME280;39844;52.496;13.482;2022-11-10T12:42:59;102116.31;;;14.68;65.09
53932;BME280;39844;52.496;13.482;2022-11-10T12:47:57;102126.94;;;14.69;65.10
53932;BME280;39844;52.496;13.482;2022-11-10T12:50:32;102122.50;;;14.71;65.35
53932;BME280;39844;52.496;13.482;2022-11-10T12:53:29;102127.81;;;14.74;64.72
53932;BME280;39844;52.496;13.482;2022-11-10T12:56:19;102132.19;;;14.75;64.68
53932;BME280;39844;52.496;13.482;2022-11-10T12:58:46;102142.78;;;14.75;64.43
53932;BME280;39844;52.496;13.482;2022-11-10T13:01:17;102135.75;;;14.74;64.56
53932;BME280;39844;52.496;13.482;2022-11-10T13:03:59;102141.91;;;14.72;64.86
53932;BME280;39844;52.496;13.482;2022-11-10T13:06:34;102141.03;;;14.71;65.03
53932;BME280;39844;52.496;13.482;2022-11-10T13:09:01;102149.81;;;14.70;64.15
53932;BME280;39844;52.496;13.482;2022-11-10T13:11:29;102144.53;;;14.73;64.26
53932;BME280;39844;52.496;13.482;2022-11-10T13:13:59;102150.72;;;14.77;63.73
53932;BME280;39844;52.496;13.482;2022-11-10T13:19:07;102148.06;;;14.72;63.74
53932;BME280;39844;52.496;13.482;2022-11-10T13:27:49;102152.47;;;14.73;63.61
53932;BME280;39844;52.496;13.482;2022-11-10T13:34:37;102163.06;;;14.81;63.19
53932;BME280;39844;52.496;13.482;2022-11-10T13:42:41;102164.81;;;14.80;63.82
53932;BME280;39844;52.496;13.482;2022-11-10T13:45:42;102171.88;;;14.77;63.68
53932;BME280;39844;52.496;13.482;2022-11-10T13:56:01;102186.84;;;14.73;63.80
53932;BME280;39844;52.496;13.482;2022-11-10T13:58:34;102181.53;;;14.73;63.55
53932;BME280;39844;52.496;13.482;2022-11-10T14:11:59;102198.31;;;14.78;62.71
53932;BME280;39844;52.496;13.482;2022-11-10T14:14:34;102209.75;;;14.77;62.55
53932;BME280;39844;52.496;13.482;2022-11-10T14:17:14;102204.44;;;14.77;62.71
53932;BME280;39844;52.496;13.482;2022-11-10T14:19:42;102204.47;;;14.76;63.03
53932;BME280;39844;52.496;13.482;2022-11-10T14:25:05;102203.59;;;14.74;63.01
53932;BME280;39844;52.496;13.482;2022-11-10T14:27:38;102204.44;;;14.68;62.96
53932;BME280;39844;52.496;13.482;2022-11-10T14:30:28;102217.63;;;14.61;63.74
53932;BME280;39844;52.496;13.482;2022-11-10T14:33:08;102222.91;;;14.51;63.74
53932;BME280;39844;52.496;13.482;2022-11-10T14:38:19;102227.25;;;14.45;64.25
53932;BME280;39844;52.496;13.482;2022-11-10T14:40:45;102225.50;;;14.42;64.39